createdAt,value
2022-10-12T00:00:59.334Z,94711.41
2022-10-12T00:03:25.925Z,94716.41
2022-10-12T00:06:26.895Z,94711.34
2022-10-12T00:08:54.745Z,94721.53
2022-10-12T00:11:27.389Z,94719.56
2022-10-12T00:13:55.373Z,94702.16
2022-10-12T00:16:24.273Z,94708.47
2022-10-12T00:18:55.518Z,94702.03
2022-10-12T00:21:23.511Z,94705.84
2022-10-12T00:23:50.162Z,94708.94
2022-10-12T00:26:22.060Z,94712.13
2022-10-12T00:28:49.574Z,94706.69
2022-10-12T00:31:19.100Z,94712.09
2022-10-12T00:33:47.243Z,94712.56
2022-10-12T00:36:16.415Z,94713.34
2022-10-12T00:38:43.235Z,94707.66
2022-10-12T00:41:10.691Z,94700.94
2022-10-12T00:43:41.742Z,94701.66
2022-10-12T00:46:31.329Z,94694.59
2022-10-12T00:49:08.544Z,94696.63
2022-10-12T00:51:35.233Z,94696.69
2022-10-12T00:54:07.979Z,94697.34
2022-10-12T00:56:38.260Z,94698.25
2022-10-12T00:59:09.911Z,94703.72
2022-10-12T01:01:38.775Z,94701.06
2022-10-12T01:04:06.531Z,94689.91
2022-10-12T01:06:34.580Z,94702.34
2022-10-12T01:09:02.361Z,94697.34
2022-10-12T01:11:28.953Z,94701.03
2022-10-12T01:13:56.112Z,94698.38
2022-10-12T01:16:28.622Z,94698.56
2022-10-12T01:19:04.498Z,94702.75
2022-10-12T01:21:37.760Z,94706.69
2022-10-12T01:24:41.634Z,94705.66
2022-10-12T01:27:14.124Z,94704.91
2022-10-12T01:30:08.024Z,94704.88
2022-10-12T01:32:47.188Z,94695.69
2022-10-12T01:35:24.311Z,94698.78
2022-10-12T01:38:07.465Z,94693.03
2022-10-12T01:40:53.145Z,94694.94
2022-10-12T01:43:24.105Z,94703.16
2022-10-12T01:45:50.876Z,94700.84
2022-10-12T20:38:00.938Z,94867.31
2022-10-12T20:40:29.006Z,94855.50
2022-10-12T20:42:56.878Z,94851.16
2022-10-12T20:45:23.485Z,94854.19
2022-10-12T20:47:50.125Z,94853.66
2022-10-12T20:50:16.874Z,94851.84
2022-10-12T20:52:44.038Z,94868.91
2022-10-12T20:55:11.041Z,94868.25
2022-10-12T20:57:37.659Z,94866.47
2022-10-12T21:00:05.582Z,94860.47
2022-10-12T21:02:33.503Z,94862.41
2022-10-12T21:05:00.147Z,94863.63
2022-10-12T21:07:26.842Z,94862.84
2022-10-12T21:09:53.452Z,94849.66
2022-10-12T21:12:20.716Z,94856.06
2022-10-12T21:14:47.737Z,94860.38
2022-10-12T21:17:14.423Z,94854.16
2022-10-12T21:19:41.623Z,94853.38
2022-10-12T21:22:08.283Z,94848.72
2022-10-12T21:24:35.038Z,94839.84
2022-10-12T21:27:02.454Z,94852.63
2022-10-12T21:29:29.044Z,94847.34
2022-10-12T21:31:55.806Z,94845.44
2022-10-12T21:34:22.531Z,94845.38
2022-10-12T21:36:49.360Z,94844.66
2022-10-12T21:39:17.331Z,94838.09
2022-10-12T21:41:44.055Z,94849.16
2022-10-12T21:44:11.884Z,94849.84
2022-10-12T21:46:38.554Z,94849.66
2022-10-12T21:49:09.189Z,94855.31
2022-10-12T21:51:36.800Z,94854.53
2022-10-12T21:54:05.447Z,94860.00
2022-10-12T21:56:35.213Z,94860.34
2022-10-12T21:59:03.021Z,94855.81
2022-10-12T22:01:40.299Z,94849.03
2022-10-12T22:04:11.368Z,94845.81
2022-10-12T22:06:38.239Z,94840.03
2022-10-12T22:09:08.256Z,94837.38
2022-10-12T22:11:36.502Z,94841.97
2022-10-12T22:14:06.045Z,94837.69
2022-10-12T22:16:36.666Z,94842.63
2022-10-12T22:19:06.287Z,94851.50
2022-10-12T22:21:33.796Z,94856.28
2022-10-12T22:24:00.658Z,94850.28
2022-10-12T22:26:27.946Z,94853.13
2022-10-12T22:28:55.011Z,94851.91
2022-10-12T22:31:22.871Z,94851.84
2022-10-12T22:33:49.598Z,94854.84
2022-10-12T22:36:16.990Z,94871.44
2022-10-12T22:38:44.449Z,94856.09
2022-10-12T22:41:13.681Z,94855.09
2022-10-12T22:43:40.285Z,94859.47
2022-10-12T22:46:07.371Z,94863.78
2022-10-12T22:48:34.934Z,94866.72
2022-10-12T22:51:02.562Z,94867.72
2022-10-12T22:53:30.026Z,94864.53
2022-10-12T22:56:05.784Z,94865.69
2022-10-12T22:58:33.006Z,94867.56
2022-10-12T23:01:08.786Z,94865.06
2022-10-12T23:03:36.774Z,94875.81
2022-10-12T23:06:04.595Z,94872.78
2022-10-12T23:08:31.529Z,94874.63
2022-10-12T23:11:06.265Z,94872.44
2022-10-12T23:13:34.117Z,94884.50
2022-10-12T23:16:05.746Z,94886.22
2022-10-12T23:18:34.093Z,94882.31
2022-10-12T23:21:04.967Z,94883.63
2022-10-12T23:23:32.758Z,94883.97
2022-10-12T23:26:02.067Z,94884.13
2022-10-12T23:28:28.898Z,94874.31
2022-10-12T23:30:55.798Z,94881.50
2022-10-12T23:33:22.369Z,94880.91
2022-10-12T23:35:59.786Z,94880.91
2022-10-12T23:38:29.485Z,94875.03
2022-10-12T23:40:56.935Z,94880.31
2022-10-12T23:43:23.671Z,94878.88
2022-10-12T23:45:50.545Z,94883.59
2022-10-12T23:48:17.145Z,94881.19
2022-10-12T23:50:43.873Z,94875.06
2022-10-12T23:53:11.952Z,94873.06
2022-10-12T23:55:38.622Z,94879.47
2022-10-12T23:58:05.787Z,94875.63
